createdAt,value
2022-08-19T00:02:18.225Z,6.50
2022-08-19T00:04:48.008Z,6.50
2022-08-19T00:07:16.102Z,7.10
2022-08-19T00:09:43.776Z,7.00
2022-08-19T00:12:12.143Z,6.80
2022-08-19T00:14:40.198Z,5.90
2022-08-19T00:17:09.651Z,6.00
2022-08-19T00:19:37.610Z,6.40
2022-08-19T00:22:06.385Z,7.00
2022-08-19T00:24:34.142Z,6.90
2022-08-19T00:27:25.688Z,6.40
2022-08-19T00:29:52.207Z,6.70
2022-08-19T00:32:21.318Z,6.40
2022-08-19T00:34:49.026Z,6.80
2022-08-19T00:37:16.691Z,7.40
2022-08-19T00:39:44.452Z,7.30
2022-08-19T00:42:15.061Z,7.20
2022-08-19T00:44:44.165Z,6.70
2022-08-19T00:47:14.197Z,6.50
2022-08-19T00:49:46.996Z,6.80
2022-08-19T00:52:20.622Z,7.10
2022-08-19T00:54:52.494Z,7.50
2022-08-19T00:57:27.527Z,7.60
2022-08-19T01:00:02.400Z,6.20
2022-08-19T01:02:32.236Z,7.10
2022-08-19T01:05:02.579Z,7.20
2022-08-19T01:07:36.007Z,7.80
2022-08-19T01:10:13.417Z,6.90
2022-08-19T01:12:42.054Z,7.30
2022-08-19T01:15:12.470Z,6.60
2022-08-19T01:17:42.063Z,7.00
2022-08-19T01:20:20.310Z,6.80
2022-08-19T01:22:53.358Z,7.40
2022-08-19T01:25:27.043Z,6.80
2022-08-19T01:27:59.117Z,6.50
2022-08-19T01:30:36.122Z,6.80
2022-08-19T01:33:06.287Z,7.30
2022-08-19T01:35:36.049Z,7.40
2022-08-19T01:38:08.600Z,7.30
2022-08-19T01:40:39.370Z,6.60
2022-08-19T01:43:07.535Z,7.00
2022-08-19T01:45:36.077Z,6.20
2022-08-19T01:48:04.716Z,6.90
2022-08-19T01:50:34.127Z,6.90
2022-08-19T01:53:06.878Z,5.80
2022-08-19T01:55:41.137Z,6.10
2022-08-19T01:58:14.476Z,6.70
2022-08-19T02:00:44.493Z,7.80
2022-08-19T02:03:13.020Z,6.70
2022-08-19T02:05:41.847Z,6.30
2022-08-19T02:08:10.731Z,6.20
2022-08-19T02:10:44.276Z,6.50
2022-08-19T02:13:14.108Z,6.70
2022-08-19T02:15:42.300Z,6.90
2022-08-19T02:18:10.416Z,7.10
2022-08-19T02:20:39.610Z,7.20
2022-08-19T02:23:13.708Z,6.60
2022-08-19T02:25:48.907Z,7.00
2022-08-19T02:28:18.991Z,7.40
2022-08-19T02:30:48.223Z,7.40
2022-08-19T02:33:16.613Z,7.50
2022-08-19T02:35:45.927Z,7.50
2022-08-19T02:38:26.817Z,6.70
2022-08-19T02:41:08.176Z,6.40
2022-08-19T02:43:39.664Z,6.40
2022-08-19T02:46:21.771Z,6.60
2022-08-19T02:48:51.130Z,5.50
2022-08-19T02:51:23.577Z,5.90
2022-08-19T02:53:52.070Z,5.90
2022-08-19T02:56:20.669Z,6.80
2022-08-19T02:58:49.425Z,6.80
2022-08-19T03:01:25.003Z,7.00
2022-08-19T03:03:52.877Z,6.30
2022-08-19T03:06:21.262Z,6.10
2022-08-19T03:08:50.524Z,6.10
2022-08-19T03:11:24.226Z,6.50
2022-08-19T03:13:52.333Z,6.80
2022-08-19T03:16:24.928Z,5.90
2022-08-19T03:18:54.596Z,5.70
2022-08-19T03:21:25.834Z,6.60
2022-08-19T03:23:58.594Z,6.60
2022-08-19T03:26:26.672Z,6.20
2022-08-19T03:28:58.283Z,5.90
2022-08-19T03:31:44.563Z,6.20
2022-08-19T03:34:19.182Z,6.20
2022-08-19T03:36:48.125Z,7.00
2022-08-19T03:39:17.506Z,6.60
2022-08-19T03:41:48.613Z,6.60
2022-08-19T03:44:21.686Z,7.10
2022-08-19T03:46:56.351Z,7.80
2022-08-19T03:49:28.228Z,8.20
2022-08-19T03:51:58.099Z,7.20
2022-08-19T03:54:26.274Z,7.40
2022-08-19T03:56:56.261Z,6.80
2022-08-19T03:59:32.883Z,7.30
2022-08-19T04:02:03.578Z,6.70
2022-08-19T04:04:31.888Z,7.30
2022-08-19T04:06:59.788Z,7.20
2022-08-19T04:09:27.990Z,6.50
2022-08-19T04:11:58.310Z,6.60
2022-08-19T04:14:31.163Z,6.80
2022-08-19T04:17:01.376Z,7.20
2022-08-19T04:19:31.464Z,7.00
2022-08-19T04:21:59.640Z,7.30
2022-08-19T04:24:27.706Z,7.50
2022-08-19T04:26:55.478Z,8.10
2022-08-19T04:29:26.420Z,8.30
2022-08-19T04:31:56.582Z,8.20
2022-08-19T04:34:27.005Z,7.50
2022-08-19T04:36:56.279Z,7.00
2022-08-19T04:39:49.405Z,7.50
2022-08-19T04:42:37.243Z,8.20
2022-08-19T04:45:15.674Z,8.30
2022-08-19T04:47:47.576Z,8.40
2022-08-19T04:50:27.386Z,7.70
2022-08-19T04:52:56.880Z,7.80
2022-08-19T04:55:26.802Z,7.20
2022-08-19T04:57:55.728Z,7.20
2022-08-19T05:00:23.851Z,8.70
2022-08-19T05:02:52.086Z,7.50
2022-08-19T05:05:20.787Z,7.40
2022-08-19T05:07:48.529Z,6.90
2022-08-19T05:10:16.369Z,6.90
2022-08-19T05:12:44.082Z,6.80
2022-08-19T05:15:12.128Z,7.50
2022-08-19T05:17:59.952Z,8.00
2022-08-19T05:20:46.347Z,7.50
2022-08-19T05:23:22.050Z,6.40
2022-08-19T05:25:52.737Z,6.90
2022-08-19T05:28:21.345Z,7.00
2022-08-19T05:30:51.453Z,7.30
2022-08-19T05:33:19.807Z,7.50
2022-08-19T05:35:49.392Z,7.70
2022-08-19T05:38:20.268Z,7.70
2022-08-19T05:40:49.137Z,6.40
2022-08-19T05:43:16.928Z,6.40
2022-08-19T05:45:45.102Z,6.40
2022-08-19T05:48:13.397Z,6.80
2022-08-19T05:50:42.382Z,7.10
2022-08-19T05:53:10.051Z,7.00
2022-08-19T05:55:39.767Z,7.00
2022-08-19T05:58:10.447Z,6.90
2022-08-19T06:00:38.864Z,5.80
2022-08-19T06:03:12.542Z,5.70
2022-08-19T06:05:49.700Z,6.20
2022-08-19T06:08:20.977Z,6.10
2022-08-19T06:11:23.050Z,6.30
2022-08-19T06:13:57.181Z,6.30
2022-08-19T06:16:27.924Z,6.70
2022-08-19T06:18:58.030Z,6.90
2022-08-19T06:21:28.340Z,7.00
2022-08-19T06:23:59.183Z,5.50
2022-08-19T06:26:27.493Z,5.00
2022-08-19T06:28:55.461Z,5.50
2022-08-19T06:31:26.027Z,6.40
2022-08-19T06:33:54.097Z,6.20
2022-08-19T06:36:28.509Z,6.40
2022-08-19T06:38:57.947Z,6.10
2022-08-19T06:41:27.248Z,7.00
2022-08-19T06:43:56.374Z,6.10
2022-08-19T06:46:24.820Z,7.10
2022-08-19T06:48:54.365Z,6.40
2022-08-19T06:51:23.304Z,6.20
2022-08-19T06:53:54.315Z,5.40
2022-08-19T06:56:32.061Z,5.60
2022-08-19T06:58:59.718Z,5.00
2022-08-19T07:01:27.938Z,6.00
2022-08-19T07:03:56.024Z,5.80
2022-08-19T07:06:43.655Z,6.30
2022-08-19T07:09:18.342Z,5.80
2022-08-19T07:11:48.957Z,6.70
2022-08-19T07:14:20.048Z,6.40
2022-08-19T07:16:50.418Z,6.60
2022-08-19T07:19:20.640Z,6.00
2022-08-19T07:21:49.902Z,6.40
2022-08-19T07:24:18.809Z,6.10
2022-08-19T07:26:47.020Z,6.00
2022-08-19T07:29:25.675Z,5.80
2022-08-19T07:31:57.602Z,5.00
2022-08-19T07:34:29.688Z,5.40
2022-08-19T07:36:58.502Z,5.60
2022-08-19T07:39:30.118Z,5.70
2022-08-19T07:42:01.170Z,5.40
2022-08-19T07:44:29.240Z,5.70
2022-08-19T07:46:58.253Z,5.80
2022-08-19T07:49:25.962Z,5.70
2022-08-19T07:51:57.490Z,6.10
2022-08-19T07:54:28.108Z,5.80
2022-08-19T07:56:57.013Z,5.60
2022-08-19T07:59:24.906Z,5.10
2022-08-19T08:01:53.597Z,5.20
2022-08-19T08:04:40.135Z,4.30
2022-08-19T08:07:31.638Z,4.90
2022-08-19T08:10:03.152Z,4.60
2022-08-19T08:12:39.869Z,5.10
2022-08-19T08:15:12.807Z,5.10
2022-08-19T08:17:49.541Z,5.10
2022-08-19T08:20:20.559Z,4.70
2022-08-19T08:23:08.331Z,5.20
2022-08-19T08:25:37.333Z,5.20
2022-08-19T08:28:05.759Z,5.20
2022-08-19T08:30:35.987Z,6.50
2022-08-19T08:33:04.076Z,5.40
2022-08-19T08:35:31.946Z,5.10
2022-08-19T08:38:00.116Z,10.00
2022-08-19T08:40:43.079Z,4.80
2022-08-19T08:43:32.189Z,4.80
2022-08-19T08:46:04.614Z,5.10
2022-08-19T08:48:35.777Z,4.20
2022-08-19T08:51:09.352Z,4.50
2022-08-19T08:53:41.769Z,4.40
2022-08-19T08:56:13.554Z,4.30
2022-08-19T08:58:54.408Z,5.40
2022-08-19T09:01:23.462Z,4.20
2022-08-19T09:03:51.686Z,4.30
2022-08-19T09:06:38.096Z,4.50
2022-08-19T09:09:17.945Z,4.20
2022-08-19T09:11:52.470Z,4.60
2022-08-19T09:14:49.284Z,4.20
2022-08-19T09:17:11.135Z,3.60
2022-08-19T09:19:54.825Z,6.20
2022-08-19T09:22:26.108Z,3.60
2022-08-19T09:24:56.016Z,3.20
2022-08-19T09:27:42.570Z,3.10
2022-08-19T09:30:24.874Z,3.00
2022-08-19T09:32:53.903Z,2.90
2022-08-19T09:35:24.386Z,2.70
2022-08-19T09:37:57.625Z,3.00
2022-08-19T09:40:33.449Z,2.60
2022-08-19T09:43:11.394Z,2.60
2022-08-19T09:45:41.239Z,2.60
2022-08-19T09:48:09.397Z,2.90
2022-08-19T09:50:51.771Z,3.30
2022-08-19T09:53:25.385Z,2.90
2022-08-19T09:55:55.813Z,3.00
2022-08-19T09:58:28.552Z,2.80
2022-08-19T10:00:58.336Z,3.10
2022-08-19T10:03:29.914Z,2.80
2022-08-19T10:06:00.844Z,2.80
2022-08-19T10:08:32.521Z,5.60
2022-08-19T10:11:27.249Z,3.20
2022-08-19T10:13:49.627Z,2.90
2022-08-19T10:16:21.012Z,3.00
2022-08-19T10:18:51.423Z,2.50
2022-08-19T10:21:29.799Z,2.50
2022-08-19T10:24:04.781Z,3.00
2022-08-19T10:26:35.771Z,2.70
2022-08-19T10:29:06.166Z,3.00
2022-08-19T10:32:01.076Z,2.60
2022-08-19T10:34:28.175Z,2.80
2022-08-19T10:37:01.314Z,2.90
2022-08-19T10:39:37.982Z,2.90
2022-08-19T10:42:11.729Z,3.40
2022-08-19T10:44:39.538Z,2.80
2022-08-19T10:47:24.319Z,3.40
2022-08-19T10:50:13.564Z,3.10
2022-08-19T10:52:49.700Z,3.10
2022-08-19T10:55:43.428Z,2.80
2022-08-19T10:58:18.713Z,4.40
2022-08-19T11:00:54.501Z,5.80
2022-08-19T11:03:22.938Z,2.90
2022-08-19T11:06:06.478Z,2.70
2022-08-19T11:08:35.898Z,2.60
2022-08-19T11:11:04.600Z,2.30
2022-08-19T11:13:37.082Z,2.60
2022-08-19T11:16:09.503Z,3.10
2022-08-19T11:18:46.621Z,2.60
2022-08-19T11:21:20.376Z,3.10
2022-08-19T11:23:50.378Z,2.60
2022-08-19T11:26:19.572Z,2.60
2022-08-19T11:28:48.155Z,2.60
2022-08-19T11:31:21.517Z,2.60
2022-08-19T11:33:53.505Z,2.60
2022-08-19T11:36:23.785Z,3.00
2022-08-19T11:38:51.861Z,2.40
2022-08-19T11:41:23.847Z,2.40
2022-08-19T11:43:53.872Z,2.40
2022-08-19T11:46:23.644Z,2.90
2022-08-19T11:48:51.663Z,2.60
2022-08-19T11:51:22.692Z,2.70
2022-08-19T11:53:51.688Z,2.60
2022-08-19T11:56:20.165Z,2.30
2022-08-19T11:58:48.566Z,2.40
2022-08-19T12:01:18.586Z,2.70
2022-08-19T12:03:48.299Z,2.50
2022-08-19T12:06:19.300Z,2.60
2022-08-19T12:08:48.498Z,2.80
2022-08-19T12:11:16.836Z,2.60
2022-08-19T12:13:48.845Z,2.70
2022-08-19T12:16:19.509Z,2.70
2022-08-19T12:18:47.764Z,2.80
2022-08-19T12:21:17.541Z,2.80
2022-08-19T12:23:46.409Z,2.90
2022-08-19T12:26:14.208Z,2.70
2022-08-19T12:28:42.472Z,2.60
2022-08-19T12:31:13.103Z,3.20
2022-08-19T12:33:42.677Z,3.00
2022-08-19T12:36:13.961Z,3.00
2022-08-19T12:38:42.235Z,2.60
2022-08-19T12:41:13.178Z,2.90
2022-08-19T12:43:40.866Z,3.00
2022-08-19T12:46:10.856Z,3.10
2022-08-19T12:48:42.908Z,2.70
2022-08-19T12:51:15.034Z,2.90
2022-08-19T12:53:43.135Z,3.70
2022-08-19T12:56:13.861Z,3.30
2022-08-19T12:58:49.079Z,2.80
2022-08-19T13:01:22.694Z,3.00
2022-08-19T13:03:53.531Z,3.50
2022-08-19T13:06:22.376Z,3.00
2022-08-19T13:08:50.185Z,2.90
2022-08-19T13:11:21.597Z,3.00
2022-08-19T13:13:51.909Z,3.70
2022-08-19T13:16:21.258Z,4.10
2022-08-19T13:18:50.359Z,3.50
2022-08-19T13:21:20.889Z,3.40
2022-08-19T13:23:51.713Z,3.30
2022-08-19T13:26:20.122Z,3.10
2022-08-19T13:29:06.941Z,2.80
2022-08-19T13:31:56.043Z,3.00
2022-08-19T13:34:34.891Z,3.40
2022-08-19T13:37:05.020Z,3.10
2022-08-19T13:39:34.374Z,3.20
2022-08-19T13:42:05.337Z,3.20
2022-08-19T13:44:33.082Z,3.00
2022-08-19T13:47:07.941Z,3.40
2022-08-19T13:49:37.271Z,2.80
2022-08-19T13:52:06.469Z,2.80
2022-08-19T13:54:34.417Z,2.90
2022-08-19T13:57:02.222Z,2.90
2022-08-19T13:59:29.921Z,4.10
2022-08-19T14:02:01.502Z,3.00
2022-08-19T14:04:29.179Z,2.60
2022-08-19T14:06:56.948Z,2.70
2022-08-19T14:09:24.703Z,2.70
2022-08-19T14:11:52.584Z,2.90
2022-08-19T14:14:20.225Z,2.60
2022-08-19T14:16:48.604Z,2.80
2022-08-19T14:19:16.306Z,2.60
2022-08-19T14:21:44.016Z,2.60
2022-08-19T14:24:11.983Z,2.50
2022-08-19T14:26:39.908Z,2.70
2022-08-19T14:29:07.633Z,2.80
2022-08-19T14:31:35.320Z,2.50
2022-08-19T14:34:03.024Z,2.60
2022-08-19T14:36:36.346Z,3.20
2022-08-19T14:39:06.716Z,3.10
2022-08-19T14:41:34.544Z,2.80
2022-08-19T14:44:02.455Z,2.50
2022-08-19T14:46:30.140Z,3.10
2022-08-19T14:49:00.099Z,3.20
2022-08-19T14:51:28.052Z,2.80
2022-08-19T14:53:56.396Z,2.80
2022-08-19T14:56:26.903Z,2.80
2022-08-19T14:58:54.903Z,2.80
2022-08-19T15:01:23.681Z,2.50
2022-08-19T15:03:54.014Z,2.40
2022-08-19T15:06:23.972Z,2.90
2022-08-19T15:08:52.833Z,2.80
2022-08-19T15:11:23.631Z,2.60
2022-08-19T15:13:51.460Z,2.80
2022-08-19T15:16:20.341Z,3.00
2022-08-19T15:18:51.275Z,2.90
2022-08-19T15:21:26.569Z,2.70
2022-08-19T15:23:58.182Z,2.90
2022-08-19T15:26:33.338Z,2.80
2022-08-19T15:29:02.705Z,2.60
2022-08-19T15:31:36.127Z,3.00
2022-08-19T15:34:07.406Z,2.90
2022-08-19T15:36:36.194Z,2.50
2022-08-19T15:39:06.512Z,2.90
2022-08-19T15:41:34.554Z,3.10
2022-08-19T15:44:09.952Z,2.90
2022-08-19T15:46:40.471Z,2.80
2022-08-19T15:49:09.451Z,3.20
2022-08-19T15:51:39.218Z,2.60
2022-08-19T15:54:09.833Z,2.80
2022-08-19T15:57:07.236Z,3.00
2022-08-19T15:59:54.639Z,2.80
2022-08-19T16:02:46.507Z,3.20
2022-08-19T16:05:36.759Z,2.80
2022-08-19T16:08:04.968Z,3.10
2022-08-19T16:10:32.703Z,3.00
2022-08-19T16:13:00.485Z,3.10
2022-08-19T16:15:30.683Z,2.90
2022-08-19T16:18:01.186Z,3.00
2022-08-19T16:20:29.756Z,2.80
2022-08-19T16:22:59.122Z,3.40
2022-08-19T16:25:29.937Z,3.10
2022-08-19T16:28:07.147Z,3.00
2022-08-19T16:30:39.127Z,3.00
2022-08-19T16:33:07.876Z,2.50
2022-08-19T16:35:35.829Z,2.70
2022-08-19T16:38:04.140Z,2.90
2022-08-19T16:40:32.347Z,3.00
2022-08-19T16:43:00.918Z,3.00
2022-08-19T16:45:29.875Z,3.00
2022-08-19T16:47:58.175Z,3.10
2022-08-19T16:50:46.126Z,3.40
2022-08-19T16:53:15.586Z,3.00
2022-08-19T16:55:43.395Z,2.70
2022-08-19T16:58:11.076Z,2.90
2022-08-19T17:00:38.909Z,3.40
2022-08-19T17:03:14.767Z,3.10
2022-08-19T17:05:44.098Z,3.00
2022-08-19T17:08:12.442Z,3.20
2022-08-19T17:10:45.592Z,3.00
2022-08-19T17:13:22.026Z,3.40
2022-08-19T17:15:50.568Z,3.10
2022-08-19T17:18:19.989Z,3.30
2022-08-19T17:20:47.884Z,3.60
2022-08-19T17:23:16.473Z,3.30
2022-08-19T17:25:44.692Z,3.30
2022-08-19T17:28:15.862Z,3.20
2022-08-19T17:30:44.463Z,3.20
2022-08-19T17:33:12.171Z,3.20
2022-08-19T17:35:43.907Z,3.30
2022-08-19T17:38:18.186Z,3.40
2022-08-19T17:40:46.797Z,3.10
2022-08-19T17:43:16.413Z,3.30
2022-08-19T17:46:03.148Z,3.50
2022-08-19T17:48:39.444Z,3.30
2022-08-19T17:51:18.721Z,3.20
2022-08-19T17:53:51.859Z,3.40
2022-08-19T17:56:19.708Z,3.40
2022-08-19T17:58:52.030Z,3.50
2022-08-19T18:01:32.729Z,3.40
2022-08-19T18:04:17.254Z,3.70
2022-08-19T18:06:46.883Z,3.40
2022-08-19T18:09:26.318Z,3.00
2022-08-19T18:14:33.398Z,3.00
2022-08-19T18:17:13.054Z,3.10
2022-08-19T18:19:43.868Z,3.30
2022-08-19T18:22:36.445Z,3.50
2022-08-19T18:25:08.877Z,2.90
2022-08-19T18:30:07.707Z,3.00
2022-08-19T18:32:38.457Z,3.20
2022-08-19T18:35:12.500Z,3.30
2022-08-19T18:37:42.188Z,3.50
2022-08-19T18:40:31.215Z,3.20
2022-08-19T18:43:04.792Z,3.40
2022-08-19T18:45:51.576Z,4.00
2022-08-19T18:48:38.100Z,3.70
2022-08-19T18:51:06.098Z,5.30
2022-08-19T18:53:35.854Z,4.60
2022-08-19T18:56:04.113Z,6.20
2022-08-19T18:58:34.545Z,6.30
2022-08-19T19:01:11.341Z,5.40
2022-08-19T19:03:49.486Z,4.40
2022-08-19T19:06:22.933Z,4.00
2022-08-19T19:08:52.956Z,4.10
2022-08-19T19:11:32.608Z,3.40
2022-08-19T19:14:05.449Z,3.40
2022-08-19T19:16:33.176Z,3.00
2022-08-19T19:19:00.856Z,3.40
2022-08-19T19:21:31.918Z,3.30
2022-08-19T19:24:02.332Z,3.30
2022-08-19T19:26:30.405Z,3.30
2022-08-19T19:28:58.361Z,3.50
2022-08-19T19:31:26.833Z,3.20
2022-08-19T19:33:56.020Z,3.50
2022-08-19T19:36:24.333Z,3.50
2022-08-19T19:38:52.966Z,3.20
2022-08-19T19:41:26.122Z,3.50
2022-08-19T19:44:23.074Z,3.90
2022-08-19T19:46:43.958Z,3.40
2022-08-19T19:49:12.277Z,3.70
2022-08-19T19:51:41.200Z,3.50
2022-08-19T19:54:14.038Z,3.50
2022-08-19T19:56:48.602Z,3.00
2022-08-19T19:59:17.470Z,3.50
2022-08-19T20:01:46.872Z,3.60
2022-08-19T20:04:16.454Z,3.30
2022-08-19T20:06:46.313Z,3.00
2022-08-19T20:09:19.626Z,3.00
2022-08-19T20:11:54.351Z,3.10
2022-08-19T20:14:35.759Z,3.20
2022-08-19T20:17:04.545Z,3.50
2022-08-19T20:19:37.529Z,2.80
2022-08-19T20:22:06.729Z,3.10
2022-08-19T20:24:36.206Z,3.50
2022-08-19T20:27:05.126Z,3.10
2022-08-19T20:29:38.014Z,3.90
2022-08-19T20:32:07.573Z,3.20
2022-08-19T20:34:35.335Z,3.30
2022-08-19T20:37:03.539Z,3.50
2022-08-19T20:39:31.401Z,3.70
2022-08-19T20:42:00.820Z,3.30
2022-08-19T20:44:28.513Z,3.30
2022-08-19T20:46:59.426Z,3.40
2022-08-19T20:49:29.498Z,3.50
2022-08-19T20:51:57.205Z,3.60
2022-08-19T20:54:25.454Z,3.40
2022-08-19T20:56:53.984Z,3.30
2022-08-19T20:59:22.367Z,3.20
2022-08-19T21:01:53.340Z,3.50
2022-08-19T21:04:21.822Z,3.60
2022-08-19T21:06:50.310Z,3.20
2022-08-19T21:09:18.222Z,3.30
2022-08-19T21:11:46.128Z,3.40
2022-08-19T21:14:13.931Z,3.30
2022-08-19T21:16:41.561Z,3.30
2022-08-19T21:19:09.280Z,3.40
2022-08-19T21:21:36.948Z,3.80
2022-08-19T21:24:05.234Z,3.20
2022-08-19T21:26:32.858Z,3.20
2022-08-19T21:29:00.572Z,3.70
2022-08-19T21:31:28.313Z,3.60
2022-08-19T21:33:56.081Z,3.50
2022-08-19T21:36:23.720Z,3.30
2022-08-19T21:38:51.508Z,3.90
2022-08-19T21:41:19.178Z,3.90
2022-08-19T21:43:46.806Z,3.60
2022-08-19T21:46:14.645Z,3.40
2022-08-19T21:48:42.305Z,3.40
2022-08-19T21:51:09.959Z,3.80
2022-08-19T21:53:37.603Z,3.40
2022-08-19T21:56:08.737Z,3.50
2022-08-19T21:58:39.035Z,3.40
2022-08-19T22:01:08.063Z,3.40
2022-08-19T22:03:37.359Z,3.60
2022-08-19T22:06:06.191Z,3.10
2022-08-19T22:08:33.835Z,3.10
2022-08-19T22:11:03.094Z,3.60
2022-08-19T22:13:39.812Z,3.20
2022-08-19T22:16:09.558Z,3.30
2022-08-19T22:18:37.256Z,3.10
2022-08-19T22:21:11.329Z,3.50
2022-08-19T22:23:44.399Z,2.90
2022-08-19T22:26:13.036Z,3.50
2022-08-19T22:28:41.464Z,3.40
2022-08-19T22:31:10.091Z,3.30
2022-08-19T22:33:38.381Z,3.00
2022-08-19T22:36:10.110Z,2.90
2022-08-19T22:38:38.380Z,3.00
2022-08-19T22:41:07.996Z,3.00
2022-08-19T22:43:37.728Z,3.40
2022-08-19T22:46:16.979Z,3.20
2022-08-19T22:48:46.245Z,3.10
2022-08-19T22:51:33.926Z,3.30
2022-08-19T22:54:02.618Z,3.10
2022-08-19T22:56:30.491Z,3.20
2022-08-19T22:58:58.427Z,3.20
2022-08-19T23:01:30.627Z,3.50
2022-08-19T23:04:00.040Z,3.10
2022-08-19T23:06:33.560Z,3.10
2022-08-19T23:09:06.776Z,3.30
2022-08-19T23:11:41.611Z,3.30
2022-08-19T23:14:11.419Z,2.90
2022-08-19T23:16:41.348Z,3.10
2022-08-19T23:19:10.318Z,3.00
2022-08-19T23:21:42.816Z,3.10
2022-08-19T23:26:39.087Z,3.00
2022-08-19T23:29:25.251Z,3.30
2022-08-19T23:31:52.953Z,2.70
2022-08-19T23:34:20.665Z,2.70
2022-08-19T23:36:50.685Z,2.60
2022-08-19T23:39:19.310Z,2.90
2022-08-19T23:41:47.355Z,3.40
2022-08-19T23:44:15.139Z,3.30
2022-08-19T23:46:54.899Z,3.30
2022-08-19T23:49:25.074Z,3.10
2022-08-19T23:51:54.416Z,3.20
2022-08-19T23:54:22.705Z,3.70
2022-08-19T23:57:02.080Z,3.40
2022-08-19T23:59:29.713Z,3.70
